createdAt,value
2023-01-21T00:01:21.093Z,3.10
2023-01-21T00:03:49.756Z,3.00
2023-01-21T00:06:18.379Z,2.90
2023-01-21T00:08:48.263Z,2.90
2023-01-21T00:11:17.396Z,2.80
2023-01-21T00:13:46.320Z,2.70
2023-01-21T00:16:15.202Z,2.60
2023-01-21T00:18:43.812Z,2.60
2023-01-21T00:21:12.302Z,2.50
2023-01-21T00:23:41.180Z,2.30
2023-01-21T00:26:13.180Z,2.20
2023-01-21T00:28:43.910Z,2.10
2023-01-21T00:31:13.733Z,2.10
2023-01-21T00:33:42.242Z,2.10
2023-01-21T00:36:12.682Z,2.20
2023-01-21T00:38:41.324Z,2.10
2023-01-21T00:41:13.810Z,2.10
2023-01-21T00:43:42.833Z,2.10
2023-01-21T00:46:12.311Z,2.00
2023-01-21T00:48:40.887Z,2.00
2023-01-21T00:51:10.087Z,2.10
2023-01-21T00:53:41.981Z,2.20
2023-01-21T00:56:13.859Z,2.10
2023-01-21T00:58:43.636Z,2.10
2023-01-21T01:01:14.541Z,2.20
2023-01-21T01:03:43.512Z,2.30
2023-01-21T01:06:14.140Z,2.30
2023-01-21T01:08:42.752Z,2.40
2023-01-21T01:11:14.058Z,2.40
2023-01-21T01:13:42.531Z,2.40
2023-01-21T01:16:12.476Z,2.40
2023-01-21T01:18:40.940Z,2.40
2023-01-21T01:21:13.128Z,2.40
2023-01-21T01:23:41.991Z,2.50
2023-01-21T01:26:14.894Z,2.50
2023-01-21T01:28:43.669Z,2.60
2023-01-21T01:31:14.563Z,2.70
2023-01-21T01:33:43.179Z,2.70
2023-01-21T01:36:14.801Z,2.80
2023-01-21T01:38:43.590Z,2.80
2023-01-21T01:41:17.440Z,2.80
2023-01-21T01:44:04.290Z,2.80
2023-01-21T01:46:34.848Z,2.80
2023-01-21T01:49:09.278Z,2.70
2023-01-21T01:51:45.224Z,2.70
2023-01-21T01:54:19.032Z,2.80
2023-01-21T01:56:53.644Z,2.80
2023-01-21T01:59:22.586Z,2.80
2023-01-21T02:01:51.343Z,2.80
2023-01-21T02:04:24.609Z,2.80
2023-01-21T02:06:56.134Z,2.80
2023-01-21T02:09:30.115Z,2.80
2023-01-21T02:12:01.071Z,2.70
2023-01-21T02:14:34.253Z,2.70
2023-01-21T02:17:12.591Z,2.70
2023-01-21T02:20:19.632Z,2.60
2023-01-21T02:22:57.451Z,2.60
2023-01-21T02:26:06.710Z,2.60
2023-01-21T02:29:09.941Z,2.60
2023-01-21T02:32:06.016Z,2.60
2023-01-21T02:34:43.974Z,2.60
2023-01-21T02:37:15.851Z,2.60
2023-01-21T02:40:00.682Z,2.60
2023-01-21T02:42:37.011Z,2.60
2023-01-21T02:45:14.600Z,2.60
2023-01-21T02:47:50.384Z,2.60
2023-01-21T02:50:24.840Z,2.50
2023-01-21T02:52:57.790Z,2.60
2023-01-21T02:55:29.572Z,2.50
2023-01-21T02:58:02.230Z,2.50
2023-01-21T03:00:39.726Z,2.50
2023-01-21T03:03:27.171Z,2.50
2023-01-21T03:06:30.710Z,2.50
2023-01-21T03:09:05.744Z,2.50
2023-01-21T03:11:34.566Z,2.50
2023-01-21T03:14:39.974Z,2.60
2023-01-21T03:17:12.831Z,2.50
2023-01-21T03:19:46.039Z,2.60
2023-01-21T03:22:18.961Z,2.70
2023-01-21T03:24:50.669Z,2.70
2023-01-21T03:27:23.117Z,2.70
2023-01-21T03:29:55.980Z,2.70
2023-01-21T03:32:27.594Z,2.70
2023-01-21T03:34:57.804Z,2.60
2023-01-21T03:37:33.179Z,2.60
2023-01-21T03:40:11.380Z,2.60
2023-01-21T03:42:40.004Z,2.60
2023-01-21T03:45:10.034Z,2.60
2023-01-21T03:47:40.665Z,2.60
2023-01-21T03:50:12.151Z,2.60
2023-01-21T03:52:44.529Z,2.60
2023-01-21T03:55:14.696Z,2.60
2023-01-21T03:57:43.340Z,2.60
2023-01-21T04:00:13.533Z,2.60
2023-01-21T04:02:42.091Z,2.60
2023-01-21T04:05:10.983Z,2.60
2023-01-21T04:07:39.424Z,2.60
2023-01-21T04:10:11.003Z,2.50
2023-01-21T04:12:39.493Z,2.50
2023-01-21T04:15:09.301Z,2.50
2023-01-21T04:17:38.321Z,2.50
2023-01-21T04:20:09.121Z,2.40
2023-01-21T04:22:37.751Z,2.40
2023-01-21T04:25:06.711Z,2.30
2023-01-21T04:27:36.601Z,2.30
2023-01-21T04:30:05.483Z,2.30
2023-01-21T04:32:33.868Z,2.30
2023-01-21T04:35:02.402Z,2.30
2023-01-21T04:37:30.861Z,2.20
2023-01-21T04:39:59.347Z,2.30
2023-01-21T04:42:27.884Z,2.30
2023-01-21T04:44:57.802Z,2.30
2023-01-21T04:47:26.311Z,2.30
2023-01-21T04:49:54.937Z,2.20
2023-01-21T04:52:23.432Z,2.10
2023-01-21T04:54:51.901Z,2.10
2023-01-21T04:57:20.447Z,2.00
2023-01-21T04:59:48.881Z,1.90
2023-01-21T05:02:19.103Z,2.00
2023-01-21T05:04:47.642Z,2.00
2023-01-21T05:07:16.217Z,2.00
2023-01-21T05:09:44.751Z,1.90
2023-01-21T05:12:13.285Z,1.90
2023-01-21T05:14:41.846Z,1.90
2023-01-21T05:17:10.332Z,1.80
2023-01-21T05:19:40.232Z,1.80
2023-01-21T05:22:08.670Z,1.90
2023-01-21T05:24:37.106Z,1.90
2023-01-21T05:27:05.751Z,1.90
2023-01-21T05:29:34.155Z,1.90
2023-01-21T05:32:02.701Z,1.90
2023-01-21T05:34:31.453Z,2.00
2023-01-21T05:37:01.414Z,2.00
2023-01-21T05:39:29.912Z,2.00
2023-01-21T05:41:58.460Z,2.00
2023-01-21T05:44:26.907Z,2.00
2023-01-21T05:46:55.383Z,2.00
2023-01-21T05:49:23.881Z,2.00
2023-01-21T05:51:52.331Z,2.00
2023-01-21T05:54:22.944Z,2.00
2023-01-21T05:56:51.750Z,2.10
2023-01-21T05:59:20.254Z,2.10
2023-01-21T06:01:48.834Z,2.20
2023-01-21T06:04:17.416Z,2.10
2023-01-21T06:06:45.852Z,2.10
2023-01-21T06:09:14.431Z,2.10
2023-01-21T06:11:44.422Z,2.20
2023-01-21T06:14:12.989Z,2.10
2023-01-21T06:16:41.460Z,2.00
2023-01-21T06:19:10.010Z,2.00
2023-01-21T06:21:38.413Z,2.00
2023-01-21T06:24:07.373Z,2.00
2023-01-21T06:26:35.989Z,2.00
2023-01-21T06:29:05.969Z,2.00
2023-01-21T06:31:37.714Z,2.00
2023-01-21T06:34:06.233Z,2.00
2023-01-21T06:36:34.770Z,2.10
2023-01-21T06:39:03.284Z,2.10
2023-01-21T06:41:31.750Z,2.10
2023-01-21T06:44:00.221Z,2.10
2023-01-21T06:46:30.118Z,2.20
2023-01-21T06:48:58.775Z,2.20
2023-01-21T06:51:27.347Z,2.20
2023-01-21T06:53:56.072Z,2.20
2023-01-21T06:56:24.831Z,2.20
2023-01-21T06:58:56.170Z,2.10
2023-01-21T07:01:24.721Z,2.20
2023-01-21T07:03:54.619Z,2.20
2023-01-21T07:06:23.291Z,2.10
2023-01-21T07:08:51.822Z,2.00
2023-01-21T07:11:21.251Z,2.00
2023-01-21T07:13:49.951Z,2.10
2023-01-21T07:16:18.748Z,2.00
2023-01-21T07:18:47.518Z,2.00
2023-01-21T07:21:20.181Z,2.00
2023-01-21T07:23:49.101Z,2.00
2023-01-21T07:26:17.790Z,2.00
2023-01-21T07:28:50.115Z,2.10
2023-01-21T07:31:18.943Z,2.20
2023-01-21T07:33:47.892Z,2.20
2023-01-21T07:36:18.071Z,2.20
2023-01-21T07:38:46.849Z,2.30
2023-01-21T07:41:15.682Z,2.30
2023-01-21T07:43:44.485Z,2.20
2023-01-21T07:46:13.279Z,2.10
2023-01-21T07:48:41.946Z,2.10
2023-01-21T07:51:10.672Z,2.10
2023-01-21T07:53:40.743Z,2.10
2023-01-21T07:56:10.992Z,2.10
2023-01-21T07:58:39.821Z,2.10
2023-01-21T08:01:09.310Z,2.10
2023-01-21T08:03:38.976Z,2.10
2023-01-21T08:06:08.681Z,2.10
2023-01-21T08:08:37.122Z,2.10
2023-01-21T08:11:07.343Z,2.10
2023-01-21T08:13:35.812Z,2.20
2023-01-21T08:16:04.533Z,2.30
2023-01-21T08:18:33.120Z,2.30
2023-01-21T08:21:01.599Z,2.30
2023-01-21T08:23:30.070Z,2.30
2023-01-21T08:25:58.522Z,2.30
2023-01-21T08:28:28.371Z,2.30
2023-01-21T08:31:03.551Z,2.30
2023-01-21T08:33:32.552Z,2.30
2023-01-21T08:36:02.393Z,2.30
2023-01-21T08:38:31.181Z,2.30
2023-01-21T08:40:59.947Z,2.40
2023-01-21T08:43:30.321Z,2.40
2023-01-21T08:46:01.823Z,2.50
2023-01-21T08:48:30.939Z,2.50
2023-01-21T08:51:00.858Z,2.60
2023-01-21T08:53:29.901Z,2.60
2023-01-21T08:56:01.928Z,2.70
2023-01-21T08:58:33.826Z,2.80
2023-01-21T09:01:09.099Z,2.90
2023-01-21T09:03:39.037Z,3.00
2023-01-21T09:06:09.152Z,3.00
2023-01-21T09:08:38.091Z,3.10
2023-01-21T09:11:09.392Z,3.20
2023-01-21T09:13:40.476Z,3.30
2023-01-21T09:16:14.204Z,3.50
2023-01-21T09:18:43.650Z,3.60
2023-01-21T09:21:13.266Z,3.60
2023-01-21T09:23:43.291Z,3.70
2023-01-21T09:26:30.311Z,3.70
2023-01-21T09:29:01.388Z,3.80
2023-01-21T09:31:31.571Z,4.10
2023-01-21T09:34:02.667Z,4.30
2023-01-21T09:36:33.729Z,4.30
2023-01-21T09:39:02.440Z,4.70
2023-01-21T09:41:35.366Z,5.20
2023-01-21T09:44:14.880Z,5.30
2023-01-21T09:46:53.362Z,5.20
2023-01-21T09:49:26.251Z,5.10
2023-01-21T09:51:57.856Z,5.10
2023-01-21T09:54:28.441Z,5.20
2023-01-21T09:57:35.131Z,5.40
2023-01-21T10:00:37.081Z,5.40
2023-01-21T10:03:19.311Z,5.30
2023-01-21T10:06:18.434Z,5.40
2023-01-21T10:09:18.603Z,5.60
2023-01-21T10:12:05.621Z,5.70
2023-01-21T10:15:07.692Z,5.70
2023-01-21T10:17:52.037Z,5.70
2023-01-21T10:20:26.573Z,5.70
2023-01-21T10:23:02.243Z,5.60
2023-01-21T10:25:32.779Z,5.60
2023-01-21T10:28:08.491Z,5.70
2023-01-21T10:30:39.975Z,5.70
2023-01-21T10:33:18.542Z,5.70
2023-01-21T10:36:08.954Z,5.70
2023-01-21T10:38:43.261Z,5.50
2023-01-21T10:41:27.860Z,5.40
2023-01-21T10:44:05.390Z,5.30
2023-01-21T10:46:43.082Z,5.30
2023-01-21T10:49:26.880Z,5.20
2023-01-21T10:52:11.957Z,5.20
2023-01-21T10:54:58.748Z,5.20
2023-01-21T10:58:00.661Z,5.20
2023-01-21T11:00:35.975Z,5.30
2023-01-21T11:03:13.266Z,5.30
2023-01-21T11:05:47.531Z,5.60
2023-01-21T11:08:23.347Z,5.90
2023-01-21T11:10:56.438Z,5.90
2023-01-21T11:13:28.036Z,6.00
2023-01-21T11:15:59.509Z,6.20
2023-01-21T11:18:37.950Z,6.20
2023-01-21T11:21:19.491Z,6.00
2023-01-21T11:23:55.733Z,6.10
2023-01-21T11:26:34.651Z,6.20
2023-01-21T11:29:20.679Z,6.20
2023-01-21T11:31:51.775Z,6.20
2023-01-21T11:34:29.416Z,6.00
2023-01-21T11:37:02.695Z,5.80
2023-01-21T11:39:35.281Z,5.70
2023-01-21T11:42:19.311Z,5.60
2023-01-21T11:44:58.200Z,5.60
2023-01-21T11:47:39.169Z,5.90
2023-01-21T11:50:18.126Z,6.10
2023-01-21T11:52:48.910Z,6.20
2023-01-21T11:55:29.432Z,6.40
2023-01-21T11:58:04.560Z,6.60
2023-01-21T12:00:38.753Z,6.60
2023-01-21T12:03:25.157Z,6.70
2023-01-21T12:05:56.853Z,6.70
2023-01-21T12:08:32.613Z,6.60
2023-01-21T12:11:06.880Z,6.50
2023-01-21T12:13:45.140Z,6.40
2023-01-21T12:16:37.732Z,6.30
2023-01-21T12:19:40.571Z,6.20
2023-01-21T12:22:35.400Z,6.00
2023-01-21T12:25:32.870Z,6.10
2023-01-21T12:28:27.191Z,6.10
2023-01-21T12:31:24.377Z,6.00
2023-01-21T12:34:02.157Z,6.10
2023-01-21T12:36:47.748Z,6.10
2023-01-21T12:39:35.315Z,6.00
2023-01-21T12:42:12.607Z,6.10
2023-01-21T12:44:48.359Z,6.00
2023-01-21T12:47:25.710Z,6.10
2023-01-21T12:50:12.023Z,6.40
2023-01-21T12:52:52.371Z,6.50
2023-01-21T12:55:27.779Z,6.60
2023-01-21T12:58:03.977Z,6.60
2023-01-21T13:00:37.180Z,6.50
2023-01-21T13:03:17.381Z,6.50
2023-01-21T13:05:53.930Z,6.30
2023-01-21T13:08:40.881Z,6.10
2023-01-21T13:11:19.140Z,6.20
2023-01-21T13:13:56.568Z,6.20
2023-01-21T13:16:30.980Z,6.30
2023-01-21T13:19:02.718Z,6.40
2023-01-21T13:21:42.152Z,6.30
2023-01-21T13:24:21.743Z,6.40
2023-01-21T13:26:59.644Z,6.30
2023-01-21T13:29:44.603Z,6.40
2023-01-21T13:32:39.109Z,6.30
2023-01-21T13:35:22.592Z,6.30
2023-01-21T13:38:00.991Z,6.10
2023-01-21T13:40:39.630Z,6.20
2023-01-21T13:43:24.782Z,6.10
2023-01-21T13:46:07.590Z,6.00
2023-01-21T13:49:11.410Z,6.00
2023-01-21T13:51:55.230Z,5.90
2023-01-21T13:54:56.270Z,5.90
2023-01-21T13:57:57.355Z,5.80
2023-01-21T14:00:36.623Z,5.70
2023-01-21T14:03:24.021Z,5.50
2023-01-21T14:05:57.212Z,5.40
2023-01-21T14:08:34.889Z,5.30
2023-01-21T14:11:14.082Z,5.20
2023-01-21T14:14:14.301Z,5.20
2023-01-21T14:17:18.530Z,5.10
2023-01-21T14:20:05.661Z,5.00
2023-01-21T14:22:58.262Z,5.00
2023-01-21T14:38:59.625Z,5.30
2023-01-21T14:42:05.389Z,5.50
2023-01-21T14:44:40.488Z,5.60
2023-01-21T14:47:24.985Z,5.60
2023-01-21T14:50:02.414Z,5.60
2023-01-21T14:52:39.102Z,5.60
2023-01-21T14:55:28.795Z,5.40
2023-01-21T14:58:04.036Z,5.20
2023-01-21T15:00:40.432Z,5.00
2023-01-21T15:03:18.569Z,4.90
2023-01-21T15:05:58.854Z,4.70
2023-01-21T15:08:31.782Z,4.60
2023-01-21T15:11:08.880Z,4.40
2023-01-21T15:13:42.528Z,4.30
2023-01-21T15:16:19.083Z,4.20
2023-01-21T15:19:19.043Z,4.10
2023-01-21T15:22:20.598Z,4.00
2023-01-21T15:25:25.957Z,3.90
2023-01-21T15:28:38.405Z,3.80
2023-01-21T15:31:11.246Z,3.60
2023-01-21T15:34:02.317Z,3.60
2023-01-21T15:36:34.831Z,3.50
2023-01-21T15:39:07.140Z,3.50
2023-01-21T15:41:48.138Z,3.40
2023-01-21T15:44:35.023Z,3.30
2023-01-21T15:47:14.822Z,3.20
2023-01-21T15:49:54.250Z,3.20
2023-01-21T15:52:35.299Z,3.10
2023-01-21T15:55:18.301Z,3.10
2023-01-21T15:57:53.751Z,3.00
2023-01-21T16:00:33.247Z,3.00
2023-01-21T16:03:12.661Z,2.90
2023-01-21T16:05:51.612Z,2.90
2023-01-21T16:08:31.524Z,2.90
2023-01-21T16:11:13.701Z,2.90
2023-01-21T16:13:54.190Z,2.80
2023-01-21T16:16:35.465Z,2.80
2023-01-21T16:19:08.567Z,2.80
2023-01-21T16:21:40.556Z,2.80
2023-01-21T16:24:14.411Z,2.70
2023-01-21T16:27:20.898Z,2.70
2023-01-21T16:29:50.161Z,2.70
2023-01-21T16:32:20.347Z,2.60
2023-01-21T16:34:53.600Z,2.60
2023-01-21T16:37:25.885Z,2.60
2023-01-21T16:40:18.631Z,2.60
2023-01-21T16:42:49.055Z,2.60
2023-01-21T16:45:23.850Z,2.60
2023-01-21T16:47:59.174Z,2.50
2023-01-21T16:50:33.522Z,2.50
2023-01-21T16:53:09.110Z,2.40
2023-01-21T16:55:46.821Z,2.40
2023-01-21T16:58:24.570Z,2.30
2023-01-21T17:01:06.648Z,2.30
2023-01-21T17:03:35.856Z,2.20
2023-01-21T17:06:10.951Z,2.20
2023-01-21T17:08:51.977Z,2.20
2023-01-21T17:11:21.226Z,2.20
2023-01-21T17:13:51.217Z,2.20
2023-01-21T17:20:05.506Z,2.10
2023-01-21T17:22:36.616Z,2.20
2023-01-21T17:25:09.526Z,2.20
2023-01-21T17:27:43.669Z,2.10
2023-01-21T17:30:29.236Z,2.10
2023-01-21T17:33:02.617Z,2.00
2023-01-21T17:35:33.256Z,1.90
2023-01-21T17:38:06.356Z,1.90
2023-01-21T17:40:37.850Z,2.00
2023-01-21T17:43:22.132Z,1.90
2023-01-21T17:45:55.483Z,1.90
2023-01-21T17:48:28.938Z,1.90
2023-01-21T17:51:20.775Z,2.00
2023-01-21T17:53:57.776Z,2.10
2023-01-21T17:56:39.467Z,2.20
2023-01-21T17:59:38.026Z,2.20
2023-01-21T18:02:11.081Z,2.30
2023-01-21T18:04:42.190Z,2.30
2023-01-21T18:07:22.145Z,2.30
2023-01-21T18:09:54.602Z,2.40
2023-01-21T18:12:23.479Z,2.40
2023-01-21T18:14:52.767Z,2.40
2023-01-21T18:17:25.788Z,2.40
2023-01-21T18:19:57.925Z,2.40
2023-01-21T18:22:30.487Z,2.40
2023-01-21T18:25:05.444Z,2.50
2023-01-21T18:27:34.628Z,2.50
2023-01-21T18:30:05.602Z,2.50
2023-01-21T18:32:42.711Z,2.50
2023-01-21T18:35:12.778Z,2.50
2023-01-21T18:37:47.127Z,2.50
2023-01-21T18:40:24.940Z,2.50
2023-01-21T18:42:59.725Z,2.60
2023-01-21T18:45:36.941Z,2.60
2023-01-21T18:48:10.170Z,2.60
2023-01-21T18:50:39.172Z,2.70
2023-01-21T18:53:09.777Z,2.70
2023-01-21T18:55:43.883Z,2.70
2023-01-21T18:58:16.193Z,2.70
2023-01-21T19:00:47.471Z,2.70
2023-01-21T19:03:19.451Z,2.70
2023-01-21T19:05:50.808Z,2.70
2023-01-21T19:08:28.043Z,2.70
2023-01-21T19:11:01.245Z,2.70
2023-01-21T19:13:38.581Z,2.70
2023-01-21T19:16:30.073Z,2.70
2023-01-21T19:19:04.314Z,2.80
2023-01-21T19:21:40.997Z,2.70
2023-01-21T19:24:13.912Z,2.70
2023-01-21T19:26:48.309Z,2.60
2023-01-21T19:29:24.158Z,2.70
2023-01-21T19:32:14.267Z,2.60
2023-01-21T19:34:44.711Z,2.50
2023-01-21T19:37:21.117Z,2.50
2023-01-21T19:39:50.678Z,2.40
2023-01-21T19:42:24.003Z,2.30
2023-01-21T19:44:56.439Z,2.40
2023-01-21T19:47:29.428Z,2.40
2023-01-21T19:49:59.600Z,2.40
2023-01-21T19:52:30.398Z,2.40
2023-01-21T19:55:16.393Z,2.40
2023-01-21T19:57:54.031Z,2.30
2023-01-21T20:00:28.893Z,2.30
2023-01-21T20:02:59.209Z,2.30
2023-01-21T20:05:36.828Z,2.30
2023-01-21T20:08:07.729Z,2.30
2023-01-21T20:10:37.947Z,2.20
2023-01-21T20:13:12.339Z,2.30
2023-01-21T20:15:43.269Z,2.30
2023-01-21T20:18:19.296Z,2.30
2023-01-21T20:20:48.194Z,2.40
2023-01-21T20:23:18.223Z,2.30
2023-01-21T20:25:50.667Z,2.40
2023-01-21T20:28:23.523Z,2.40
2023-01-21T20:30:53.429Z,2.40
2023-01-21T20:33:23.793Z,2.40
2023-01-21T20:36:02.307Z,2.50
2023-01-21T20:38:32.708Z,2.50
2023-01-21T20:41:06.995Z,2.50
2023-01-21T20:43:37.854Z,2.50
2023-01-21T20:46:09.215Z,2.50
2023-01-21T20:48:41.410Z,2.50
2023-01-21T20:51:11.309Z,2.60
2023-01-21T20:53:40.598Z,2.60
2023-01-21T20:56:21.832Z,2.60
2023-01-21T20:58:52.391Z,2.70
2023-01-21T21:01:23.398Z,2.70
2023-01-21T21:03:53.636Z,2.70
2023-01-21T21:06:24.487Z,2.70
2023-01-21T21:08:53.220Z,2.70
2023-01-21T21:11:22.175Z,2.70
2023-01-21T21:13:52.862Z,2.60
2023-01-21T21:16:27.982Z,2.50
2023-01-21T21:18:57.649Z,2.50
2023-01-21T21:21:26.392Z,2.40
2023-01-21T21:23:54.969Z,2.40
2023-01-21T21:26:25.315Z,2.30
2023-01-21T21:28:57.508Z,2.30
2023-01-21T21:31:27.602Z,2.30
2023-01-21T21:33:56.137Z,2.30
2023-01-21T21:36:25.787Z,2.30
2023-01-21T21:38:56.216Z,2.40
2023-01-21T21:41:44.124Z,2.40
2023-01-21T21:44:14.707Z,2.40
2023-01-21T21:47:00.416Z,2.40
2023-01-21T21:49:29.394Z,2.40
2023-01-21T21:51:59.967Z,2.40
2023-01-21T21:54:29.558Z,2.40
2023-01-21T21:57:01.680Z,2.50
2023-01-21T21:59:31.838Z,2.50
2023-01-21T22:02:00.916Z,2.50
2023-01-21T22:04:30.350Z,2.50
2023-01-21T22:07:00.869Z,2.50
2023-01-21T22:09:29.373Z,2.50
2023-01-21T22:11:57.945Z,2.50
2023-01-21T22:14:26.396Z,2.50
2023-01-21T22:16:56.326Z,2.60
2023-01-21T22:19:25.087Z,2.50
2023-01-21T22:21:53.511Z,2.60
2023-01-21T22:24:22.100Z,2.60
2023-01-21T22:26:50.633Z,2.60
2023-01-21T22:29:19.130Z,2.60
2023-01-21T22:31:47.675Z,2.60
2023-01-21T22:34:17.678Z,2.60
2023-01-21T22:36:47.989Z,2.60
2023-01-21T22:39:16.571Z,2.60
2023-01-21T22:41:45.012Z,2.60
2023-01-21T22:44:13.536Z,2.60
2023-01-21T22:46:42.009Z,2.60
2023-01-21T22:49:12.133Z,2.50
2023-01-21T22:51:42.007Z,2.50
2023-01-21T22:54:10.940Z,2.50
2023-01-21T22:56:52.765Z,2.40
2023-01-21T22:59:22.096Z,2.50
2023-01-21T23:01:51.443Z,2.50
2023-01-21T23:04:20.027Z,2.50
2023-01-21T23:06:54.940Z,2.50
2023-01-21T23:09:23.511Z,2.50
2023-01-21T23:11:52.817Z,2.50
2023-01-21T23:14:21.656Z,2.40
2023-01-21T23:16:50.379Z,2.40
2023-01-21T23:19:18.763Z,2.40
2023-01-21T23:21:47.239Z,2.40
2023-01-21T23:24:17.112Z,2.40
2023-01-21T23:26:45.550Z,2.40
2023-01-21T23:29:14.089Z,2.40
2023-01-21T23:31:42.652Z,2.40
2023-01-21T23:34:14.018Z,2.40
2023-01-21T23:36:42.503Z,2.40
2023-01-21T23:39:11.476Z,2.40
2023-01-21T23:41:46.327Z,2.40
2023-01-21T23:44:14.877Z,2.40
2023-01-21T23:46:43.751Z,2.40
2023-01-21T23:49:13.247Z,2.40
2023-01-21T23:51:41.671Z,2.40
2023-01-21T23:54:12.897Z,2.50
2023-01-21T23:56:41.829Z,2.50
2023-01-21T23:59:12.005Z,2.50
